Time;durP1;ratioP1;P1;durP2;ratioP2;P2;SDS_P1;SDS_P2;PMS_P1;PMS_P2;Temp;Humidity;BMP_temperature;BMP_pressure;BME280_temperature;BME280_humidity;BME280_pressure;Samples;Min_cycle;Max_cycle;Signal;HPM_P1;HPM_P2
2022/06/19 00:01:08;;;;;;;7.20;6.60;;;21.00;90.50;;;;;;5007451;28;20520;-49
2022/06/19 00:03:38;;;;;;;11.00;6.13;;;20.80;90.90;;;;;;5010396;28;20526;-50
2022/06/19 00:06:05;;;;;;;9.57;6.70;;;20.70;91.20;;;;;;5009230;28;20958;-49
2022/06/19 00:08:33;;;;;;;18.33;7.60;;;20.50;91.50;;;;;;4994597;28;20484;-49
2022/06/19 00:11:00;;;;;;;11.57;7.80;;;20.40;92.80;;;;;;5016702;28;20480;-54
2022/06/19 00:13:28;;;;;;;9.77;7.20;;;20.20;91.90;;;;;;5010145;28;20492;-49
2022/06/19 00:15:55;;;;;;;11.33;6.43;;;20.20;91.90;;;;;;4998494;28;20469;-49
2022/06/19 00:18:22;;;;;;;12.13;7.10;;;;;;;;;;5004534;28;20873;-49
2022/06/19 00:20:49;;;;;;;9.03;7.30;;;20.10;92.30;;;;;;5009936;28;21521;-49
2022/06/19 00:23:16;;;;;;;16.20;7.43;;;19.90;92.70;;;;;;5011366;28;20512;-50
2022/06/19 00:25:43;;;;;;;10.90;7.93;;;19.80;93.30;;;;;;5005870;28;20484;-49
2022/06/19 00:28:10;;;;;;;8.50;7.40;;;19.70;93.50;;;;;;5003444;28;20957;-50
2022/06/19 00:30:38;;;;;;;17.40;7.40;;;19.60;94.00;;;;;;5006662;28;20715;-50
2022/06/19 00:33:05;;;;;;;11.03;7.90;;;19.60;94.30;;;;;;4996296;28;20484;-49
2022/06/19 00:35:32;;;;;;;11.20;6.97;;;19.50;94.20;;;;;;5007302;28;20494;-50
2022/06/19 00:38:00;;;;;;;6.50;5.77;;;19.60;94.30;;;;;;5004787;28;20478;-49
2022/06/19 00:40:29;;;;;;;7.60;6.87;;;19.50;94.40;;;;;;5008420;28;20487;-49
2022/06/19 00:42:56;;;;;;;9.57;6.20;;;19.60;94.00;;;;;;5009592;28;20505;-50
2022/06/19 00:45:32;;;;;;;9.53;6.87;;;19.70;93.70;;;;;;5006221;28;21065;-49
2022/06/19 00:48:03;;;;;;;11.67;5.87;;;19.80;93.20;;;;;;5014958;28;20496;-49
2022/06/19 00:50:32;;;;;;;18.30;8.10;;;19.80;93.30;;;;;;5006919;28;20486;-49
2022/06/19 00:53:00;;;;;;;10.93;6.50;;;19.80;93.10;;;;;;5007802;28;20485;-50
2022/06/19 00:55:31;;;;;;;7.03;5.90;;;19.90;93.30;;;;;;5010186;28;20487;-50
2022/06/19 00:58:03;;;;;;;9.80;6.90;;;20.00;93.30;;;;;;5004529;28;20949;-49
2022/06/19 01:00:31;;;;;;;12.03;7.17;;;20.10;93.10;;;;;;4997866;28;20472;-50
2022/06/19 01:03:04;;;;;;;10.33;7.80;;;20.00;93.40;;;;;;5020971;28;20503;-49
2022/06/19 01:05:31;;;;;;;11.50;7.53;;;20.00;93.20;;;;;;5004717;28;20983;-49
2022/06/19 01:08:02;;;;;;;10.20;7.03;;;20.00;93.60;;;;;;5003897;28;20494;-50
2022/06/19 01:10:31;;;;;;;8.53;7.53;;;20.00;93.40;;;;;;5009635;28;20482;-50
2022/06/19 01:12:58;;;;;;;14.37;7.17;;;20.10;93.00;;;;;;5007265;28;20476;-49
2022/06/19 01:15:26;;;;;;;11.37;7.40;;;20.20;92.90;;;;;;5007422;28;20486;-50
2022/06/19 01:17:59;;;;;;;7.57;6.77;;;20.20;92.80;;;;;;5002874;28;21119;-50
2022/06/19 01:20:28;;;;;;;10.20;6.67;;;20.10;92.80;;;;;;5005939;28;20475;-51
2022/06/19 01:23:01;;;;;;;7.77;6.97;;;20.10;93.00;;;;;;5003316;28;20851;-49
2022/06/19 01:25:31;;;;;;;14.60;6.57;;;20.00;92.90;;;;;;4993861;28;20503;-51
2022/06/19 01:31:00;;;;;;;12.17;7.53;;;19.50;94.30;;;;;;4945194;28;20488;-49
2022/06/19 01:33:32;;;;;;;8.23;7.00;;;19.50;94.30;;;;;;4964175;28;21180;-50
2022/06/19 01:35:59;;;;;;;12.57;6.87;;;19.50;94.00;;;;;;4980437;28;20476;-49
2022/06/19 01:38:28;;;;;;;8.37;7.00;;;19.40;93.70;;;;;;4999674;28;20495;-49
2022/06/19 01:41:13;;;;;;;9.33;6.33;;;19.50;93.60;;;;;;5006937;28;20481;-50
2022/06/19 01:43:40;;;;;;;12.70;7.57;;;19.50;93.50;;;;;;5000463;28;20478;-50
2022/06/19 01:46:07;;;;;;;13.60;7.90;;;19.50;93.60;;;;;;5015026;28;20850;-50
2022/06/19 01:48:35;;;;;;;13.10;7.53;;;19.60;93.50;;;;;;5004256;28;20480;-50
2022/06/19 01:51:05;;;;;;;7.50;6.40;;;19.70;93.70;;;;;;5005272;28;20514;-49
2022/06/19 01:53:38;;;;;;;10.07;6.90;;;19.60;93.80;;;;;;5011795;28;21042;-50
2022/06/19 01:56:08;;;;;;;13.83;7.00;;;19.40;93.70;;;;;;5015973;28;21044;-50
2022/06/19 01:58:37;;;;;;;12.03;7.00;;;19.40;93.80;;;;;;5013776;28;20487;-50
2022/06/19 02:01:06;;;;;;;13.73;7.33;;;19.40;93.50;;;;;;5012894;28;20880;-50
2022/06/19 02:03:37;;;;;;;14.10;6.37;;;19.40;93.40;;;;;;5016983;28;20476;-50
2022/06/19 02:06:05;;;;;;;8.10;6.77;;;19.40;93.60;;;;;;5017426;28;20489;-50
2022/06/19 02:08:35;;;;;;;8.07;6.43;;;19.30;94.00;;;;;;5008507;28;21001;-50
2022/06/19 02:11:04;;;;;;;16.03;7.33;;;19.30;93.90;;;;;;5007488;28;20570;-50
2022/06/19 02:13:34;;;;;;;11.27;7.50;;;19.30;94.10;;;;;;5010993;28;20495;-50
2022/06/19 02:16:04;;;;;;;18.03;7.30;;;19.40;94.10;;;;;;5004638;28;20479;-51
2022/06/19 02:18:35;;;;;;;9.83;7.33;;;19.40;94.40;;;;;;5013939;28;20493;-50
2022/06/19 02:21:02;;;;;;;12.13;6.77;;;19.40;94.10;;;;;;5017410;28;20840;-50
2022/06/19 02:23:33;;;;;;;10.90;7.57;;;19.50;93.90;;;;;;5011296;28;21118;-50
2022/06/19 02:26:00;;;;;;;9.63;6.33;;;19.50;94.00;;;;;;5007856;28;20846;-50
2022/06/19 02:28:29;;;;;;;13.17;6.80;;;19.50;94.20;;;;;;5019754;28;20464;-55
2022/06/19 02:30:57;;;;;;;9.73;7.03;;;19.40;93.90;;;;;;5023128;28;20483;-49
2022/06/19 02:33:26;;;;;;;6.63;5.90;;;19.40;93.90;;;;;;5022551;28;20980;-49
2022/06/19 02:35:53;;;;;;;10.37;6.23;;;19.40;93.60;;;;;;5020981;28;20716;-49
2022/06/19 02:38:22;;;;;;;14.73;6.97;;;19.30;93.80;;;;;;5016574;28;20504;-49
2022/06/19 02:40:58;;;;;;;17.03;8.33;;;19.40;93.90;;;;;;5016375;28;20484;-50
2022/06/19 02:43:27;;;;;;;11.30;7.70;;;19.40;93.80;;;;;;5021473;28;21035;-49
2022/06/19 02:45:54;;;;;;;11.63;7.00;;;19.40;94.40;;;;;;5019069;28;20484;-50
2022/06/19 02:48:26;;;;;;;7.90;6.37;;;19.40;94.70;;;;;;5018158;28;20985;-49
2022/06/19 02:50:53;;;;;;;8.77;6.57;;;19.40;94.50;;;;;;5021549;28;20537;-49
2022/06/19 02:53:20;;;;;;;10.10;6.87;;;19.40;94.20;;;;;;5020640;28;20482;-49
2022/06/19 02:55:47;;;;;;;8.20;6.90;;;19.30;94.40;;;;;;5021178;28;20471;-49
2022/06/19 02:58:15;;;;;;;8.17;6.30;;;19.30;93.90;;;;;;5017745;28;20500;-50
2022/06/19 03:00:43;;;;;;;7.33;6.33;;;19.30;94.10;;;;;;5020866;28;20484;-53
2022/06/19 03:03:14;;;;;;;11.90;7.40;;;;;;;;;;5015741;28;20476;-49
2022/06/19 03:05:42;;;;;;;11.10;7.27;;;19.30;94.30;;;;;;5010403;28;20959;-49
2022/06/19 03:08:09;;;;;;;12.70;6.67;;;19.30;94.30;;;;;;5014640;28;20482;-49
2022/06/19 03:10:37;;;;;;;17.50;6.73;;;19.30;94.10;;;;;;5023801;28;20488;-50
2022/06/19 03:13:03;;;;;;;10.67;6.60;;;19.30;94.10;;;;;;5014831;28;20516;-49
2022/06/19 03:15:30;;;;;;;10.53;6.80;;;19.40;94.20;;;;;;5021376;28;21034;-50
2022/06/19 03:17:57;;;;;;;9.77;7.53;;;19.30;94.40;;;;;;5016971;28;20493;-49
2022/06/19 03:20:26;;;;;;;12.23;6.90;;;19.30;94.20;;;;;;5021106;28;20496;-50
2022/06/19 03:22:55;;;;;;;12.93;8.10;;;19.40;94.20;;;;;;5020176;28;20482;-49
2022/06/19 03:25:22;;;;;;;8.73;7.57;;;19.40;94.10;;;;;;5021463;28;20491;-50
2022/06/19 03:27:49;;;;;;;13.83;7.23;;;19.40;94.00;;;;;;5015903;28;20485;-50
2022/06/19 03:30:18;;;;;;;12.03;7.00;;;19.50;94.20;;;;;;5023617;28;20497;-50
2022/06/19 03:32:45;;;;;;;11.30;7.50;;;19.60;94.30;;;;;;5019893;28;20931;-50
2022/06/19 03:35:12;;;;;;;13.43;7.30;;;19.70;94.00;;;;;;5017428;28;20496;-50
2022/06/19 03:37:39;;;;;;;19.13;9.37;;;19.80;94.10;;;;;;5018226;28;21040;-49
2022/06/19 03:40:09;;;;;;;12.43;8.60;;;19.90;93.90;;;;;;5018485;28;20523;-50
2022/06/19 03:42:36;;;;;;;17.47;10.30;;;20.00;93.90;;;;;;5010770;28;20487;-50
2022/06/19 03:45:03;;;;;;;14.37;9.80;;;20.20;94.00;;;;;;5017589;28;20494;-50
2022/06/19 03:47:30;;;;;;;14.63;10.20;;;20.40;93.70;;;;;;5020296;28;20486;-50
2022/06/19 03:49:57;;;;;;;16.50;9.80;;;20.60;93.70;;;;;;5019500;28;20599;-50
2022/06/19 03:52:24;;;;;;;13.40;10.40;;;20.70;93.70;;;;;;5017403;28;20940;-51
2022/06/19 03:54:50;;;;;;;20.27;11.27;;;20.80;93.70;;;;;;5013428;28;20494;-50
2022/06/19 03:57:18;;;;;;;19.60;10.60;;;21.00;93.50;;;;;;5017805;28;20575;-50
2022/06/19 03:59:45;;;;;;;15.00;9.10;;;21.10;93.40;;;;;;5023797;28;20478;-50
2022/06/19 04:02:12;;;;;;;18.13;8.43;;;21.20;93.50;;;;;;5010809;28;20491;-50
2022/06/19 04:04:40;;;;;;;15.60;12.20;;;21.30;93.30;;;;;;5020367;28;20498;-50
2022/06/19 04:07:07;;;;;;;17.73;12.40;;;21.30;93.50;;;;;;5018690;28;20544;-50
2022/06/19 04:09:34;;;;;;;16.50;12.10;;;21.40;93.40;;;;;;5014991;28;20563;-50
2022/06/19 04:12:01;;;;;;;12.70;10.70;;;21.60;93.40;;;;;;5019245;28;20951;-51
2022/06/19 04:14:29;;;;;;;20.10;11.87;;;21.60;93.30;;;;;;5013811;28;20489;-51
2022/06/19 04:16:56;;;;;;;19.53;11.43;;;21.80;93.40;;;;;;5019052;28;20488;-50
2022/06/19 04:19:23;;;;;;;15.80;11.50;;;21.80;93.20;;;;;;5020476;28;20479;-49
2022/06/19 04:21:50;;;;;;;15.57;11.40;;;21.90;93.10;;;;;;5018327;28;20568;-50
2022/06/19 04:24:18;;;;;;;22.30;12.80;;;22.10;92.80;;;;;;5017620;28;20492;-51
2022/06/19 04:26:45;;;;;;;20.23;14.63;;;22.30;92.90;;;;;;5011391;28;20518;-50
2022/06/19 04:29:13;;;;;;;17.63;11.80;;;22.40;92.90;;;;;;5019054;28;20476;-50
2022/06/19 04:31:41;;;;;;;21.37;13.97;;;22.60;93.30;;;;;;5018766;28;20499;-50
2022/06/19 04:34:09;;;;;;;20.67;13.77;;;22.60;93.30;;;;;;5019163;28;20484;-50
2022/06/19 04:36:36;;;;;;;19.13;12.70;;;22.70;93.60;;;;;;5012760;28;20489;-51
2022/06/19 04:39:03;;;;;;;17.03;12.47;;;22.90;92.80;;;;;;5020127;28;20480;-50
2022/06/19 04:41:36;;;;;;;19.57;11.77;;;23.00;92.80;;;;;;5019157;28;20488;-50
2022/06/19 04:44:06;;;;;;;14.17;11.77;;;23.00;92.70;;;;;;5019732;28;20476;-50
2022/06/19 04:46:33;;;;;;;15.97;11.83;;;23.10;92.80;;;;;;5023036;28;20476;-51
2022/06/19 04:49:01;;;;;;;18.90;11.30;;;23.40;92.10;;;;;;5017380;28;20485;-50
2022/06/19 04:51:28;;;;;;;12.97;11.67;;;23.60;92.10;;;;;;5013443;28;20487;-50
2022/06/19 04:53:55;;;;;;;14.23;10.93;;;23.70;91.70;;;;;;5024767;28;20505;-50
2022/06/19 04:56:22;;;;;;;17.20;11.13;;;23.90;91.70;;;;;;5020512;28;20507;-49
2022/06/19 04:58:49;;;;;;;13.33;11.93;;;24.30;90.90;;;;;;5016479;28;20488;-48
2022/06/19 05:01:23;;;;;;;14.80;11.63;;;24.50;89.70;;;;;;5018532;28;20492;-48
2022/06/19 05:03:49;;;;;;;11.97;9.83;;;24.80;89.60;;;;;;5012894;28;20503;-48
2022/06/19 05:06:17;;;;;;;11.43;9.60;;;25.10;87.90;;;;;;5017808;28;20898;-49
2022/06/19 05:08:44;;;;;;;10.87;9.77;;;25.30;87.10;;;;;;5015959;28;20504;-48
2022/06/19 05:11:11;;;;;;;17.93;10.43;;;25.50;85.20;;;;;;5017674;28;20477;-48
2022/06/19 05:13:38;;;;;;;12.33;9.77;;;25.50;86.10;;;;;;5018979;28;20486;-49
2022/06/19 05:16:07;;;;;;;14.37;8.83;;;25.80;84.00;;;;;;5020871;28;20480;-49
2022/06/19 05:18:35;;;;;;;11.13;10.03;;;26.00;82.60;;;;;;5017208;28;21373;-48
2022/06/19 05:21:04;;;;;;;22.53;10.80;;;26.20;81.80;;;;;;5020425;28;20500;-48
2022/06/19 05:23:33;;;;;;;10.33;9.23;;;26.30;81.70;;;;;;5007876;28;20476;-49
2022/06/19 05:26:01;;;;;;;10.30;9.20;;;26.30;80.90;;;;;;5009675;28;20487;-48
2022/06/19 05:28:30;;;;;;;12.10;8.33;;;26.50;79.50;;;;;;5028107;28;20496;-48
2022/06/19 05:30:58;;;;;;;9.80;8.60;;;26.60;80.30;;;;;;5018504;28;20485;-47
2022/06/19 05:33:25;;;;;;;9.07;8.37;;;26.60;79.60;;;;;;5019800;28;20489;-48
2022/06/19 05:35:52;;;;;;;12.90;9.13;;;26.60;80.20;;;;;;5017115;28;20986;-51
2022/06/19 05:38:19;;;;;;;9.57;8.57;;;26.80;78.20;;;;;;5017606;28;20495;-48
2022/06/19 05:40:49;;;;;;;12.43;9.10;;;26.80;77.70;;;;;;5017218;28;20990;-47
2022/06/19 05:43:16;;;;;;;19.60;8.67;;;26.90;77.80;;;;;;5010140;28;20489;-48
2022/06/19 05:45:50;;;;;;;8.80;7.93;;;27.00;78.00;;;;;;5031318;28;20475;-48
2022/06/19 05:48:17;;;;;;;10.20;8.43;;;27.10;77.00;;;;;;5012072;28;20585;-48
2022/06/19 05:50:44;;;;;;;17.57;8.40;;;27.20;77.70;;;;;;5018425;28;20487;-49
2022/06/19 05:53:10;;;;;;;11.40;8.17;;;27.30;76.90;;;;;;5017492;28;20488;-48
2022/06/19 05:55:37;;;;;;;13.70;7.87;;;27.40;75.80;;;;;;5013421;28;20481;-49
2022/06/19 05:58:05;;;;;;;11.03;8.27;;;27.50;75.60;;;;;;5017688;28;20974;-47
2022/06/19 06:00:32;;;;;;;11.70;8.37;;;27.60;75.60;;;;;;5018149;28;20836;-48
2022/06/19 06:02:58;;;;;;;10.33;9.33;;;27.60;75.10;;;;;;5022312;28;20489;-48
2022/06/19 06:05:25;;;;;;;10.27;9.17;;;27.70;74.60;;;;;;5022521;28;20493;-47
2022/06/19 06:07:52;;;;;;;12.97;10.03;;;27.70;74.30;;;;;;5019585;28;20493;-47
2022/06/19 06:10:18;;;;;;;9.53;8.00;;;27.80;75.70;;;;;;5022567;28;20503;-48
2022/06/19 06:12:45;;;;;;;19.10;10.43;;;28.00;74.90;;;;;;5019359;28;21190;-48
2022/06/19 06:15:13;;;;;;;9.40;8.60;;;28.10;74.00;;;;;;5024394;28;20480;-52
2022/06/19 06:17:40;;;;;;;13.50;8.80;;;28.20;74.10;;;;;;5017939;28;20487;-51
2022/06/19 06:20:07;;;;;;;13.23;7.63;;;28.20;73.40;;;;;;5027233;28;20495;-50
2022/06/19 06:22:34;;;;;;;10.03;8.77;;;28.20;73.10;;;;;;5015744;28;20479;-49
2022/06/19 06:25:00;;;;;;;11.90;8.50;;;28.40;74.70;;;;;;5023504;28;20484;-47
2022/06/19 06:27:27;;;;;;;9.67;8.80;;;28.50;72.80;;;;;;5016266;28;20489;-54
2022/06/19 06:29:54;;;;;;;10.83;9.73;;;28.50;72.80;;;;;;5021720;28;20472;-49
2022/06/19 06:32:22;;;;;;;10.20;8.73;;;28.60;73.10;;;;;;5021084;28;20480;-48
2022/06/19 06:34:49;;;;;;;10.53;8.30;;;28.70;72.40;;;;;;5016822;28;20884;-50
2022/06/19 06:37:16;;;;;;;9.33;8.43;;;28.60;72.20;;;;;;5020990;28;20494;-48
2022/06/19 06:39:43;;;;;;;12.40;9.63;;;28.80;73.50;;;;;;5010471;28;20981;-48
2022/06/19 06:42:09;;;;;;;13.93;8.77;;;28.70;72.20;;;;;;5021540;28;20488;-48
2022/06/19 06:44:36;;;;;;;8.67;7.93;;;28.80;72.30;;;;;;5020914;28;20915;-49
2022/06/19 06:47:03;;;;;;;16.00;8.30;;;29.00;72.40;;;;;;5021506;28;21164;-47
2022/06/19 06:49:31;;;;;;;12.93;8.60;;;29.10;72.50;;;;;;5013427;28;20940;-47
2022/06/19 06:51:58;;;;;;;12.40;9.87;;;29.10;71.40;;;;;;5027498;28;20484;-49
2022/06/19 06:54:25;;;;;;;12.27;8.83;;;29.10;71.40;;;;;;5022024;28;20473;-50
2022/06/19 06:56:54;;;;;;;13.30;9.00;;;29.00;71.30;;;;;;5019542;28;20510;-48
2022/06/19 06:59:21;;;;;;;10.90;9.40;;;29.00;71.10;;;;;;5018734;28;20896;-49
2022/06/19 07:01:48;;;;;;;17.00;8.33;;;29.10;71.90;;;;;;5020437;28;20805;-50
2022/06/19 07:04:14;;;;;;;12.70;7.90;;;29.10;72.50;;;;;;5022413;28;20468;-49
2022/06/19 07:06:42;;;;;;;12.00;8.73;;;29.20;71.90;;;;;;5021226;28;20496;-52
2022/06/19 07:09:09;;;;;;;13.60;8.97;;;29.20;72.30;;;;;;5022730;28;20485;-48
2022/06/19 07:11:38;;;;;;;11.40;9.10;;;29.20;72.50;;;;;;5020245;28;20500;-48
2022/06/19 07:14:05;;;;;;;13.80;9.70;;;29.30;71.90;;;;;;5021254;28;20863;-49
2022/06/19 07:16:32;;;;;;;15.60;9.90;;;29.40;72.30;;;;;;5019415;28;20768;-48
2022/06/19 07:18:59;;;;;;;11.10;10.00;;;29.50;72.50;;;;;;5000269;28;20476;-48
2022/06/19 07:21:26;;;;;;;12.63;8.90;;;29.50;71.50;;;;;;5020065;28;20483;-54
2022/06/19 07:23:55;;;;;;;11.97;8.97;;;29.70;71.10;;;;;;5004163;28;20897;-50
2022/06/19 07:26:23;;;;;;;8.57;7.87;;;29.70;72.20;;;;;;5017314;28;20485;-50
2022/06/19 07:28:49;;;;;;;9.37;8.57;;;29.80;70.30;;;;;;5016225;28;20484;-51
2022/06/19 07:31:16;;;;;;;10.03;9.07;;;29.70;69.80;;;;;;5016669;28;20491;-50
2022/06/19 07:33:43;;;;;;;12.20;8.80;;;29.70;70.70;;;;;;5014859;28;20487;-48
2022/06/19 07:36:14;;;;;;;9.47;8.57;;;29.90;70.30;;;;;;5030952;28;20491;-48
2022/06/19 07:38:41;;;;;;;9.90;8.47;;;30.10;71.00;;;;;;5017435;28;20485;-48
2022/06/19 07:41:09;;;;;;;9.80;8.53;;;30.10;71.30;;;;;;5021285;28;20481;-48
2022/06/19 07:43:36;;;;;;;9.43;8.40;;;30.10;69.60;;;;;;5020230;28;20496;-48
2022/06/19 07:46:03;;;;;;;9.83;8.73;;;30.00;69.80;;;;;;5021957;28;20499;-48
2022/06/19 07:51:14;;;;;;;10.70;8.03;;;30.30;70.30;;;;;;5020320;28;20706;-49
2022/06/19 07:53:41;;;;;;;9.10;8.33;;;30.30;68.50;;;;;;5020994;28;20475;-49
2022/06/19 07:56:09;;;;;;;19.40;8.60;;;30.30;68.60;;;;;;5022920;28;20488;-48
2022/06/19 07:58:37;;;;;;;13.70;9.17;;;30.20;67.70;;;;;;5014923;28;20476;-48
2022/06/19 08:01:03;;;;;;;12.63;7.97;;;30.10;68.80;;;;;;5017445;28;20571;-48
2022/06/19 08:03:30;;;;;;;11.40;9.60;;;30.30;70.60;;;;;;5020225;28;20481;-49
2022/06/19 08:05:57;;;;;;;12.27;9.13;;;30.40;70.50;;;;;;5020404;28;20825;-50
2022/06/19 08:08:27;;;;;;;10.63;8.80;;;30.40;68.70;;;;;;5019623;28;20852;-48
2022/06/19 08:10:56;;;;;;;11.33;8.77;;;30.50;68.50;;;;;;5020396;28;20844;-51
2022/06/19 08:13:30;;;;;;;10.80;8.60;;;30.60;67.80;;;;;;5010103;28;20862;-49
2022/06/19 08:15:59;;;;;;;11.40;8.40;;;30.80;68.30;;;;;;5010083;28;20491;-48
2022/06/19 08:18:27;;;;;;;9.40;7.50;;;30.90;68.10;;;;;;5009929;28;20492;-47
2022/06/19 08:20:54;;;;;;;8.77;7.40;;;31.20;67.60;;;;;;5016447;28;20823;-48
2022/06/19 08:23:21;;;;;;;14.83;8.03;;;31.40;68.00;;;;;;5018955;28;20489;-50
2022/06/19 08:25:48;;;;;;;9.97;8.23;;;31.40;67.20;;;;;;5018856;28;20495;-48
2022/06/19 08:28:17;;;;;;;8.50;6.97;;;31.50;65.70;;;;;;5016378;28;20969;-48
2022/06/19 08:30:45;;;;;;;11.70;9.37;;;31.50;66.30;;;;;;5020668;28;20477;-48
2022/06/19 08:33:12;;;;;;;10.93;7.87;;;31.50;66.90;;;;;;5020416;28;20496;-48
2022/06/19 08:35:43;;;;;;;11.53;8.03;;;31.40;67.40;;;;;;5021396;28;20457;-48
2022/06/19 08:38:15;;;;;;;10.60;8.70;;;31.40;66.70;;;;;;5018317;28;20488;-50
2022/06/19 08:41:02;;;;;;;9.43;8.60;;;31.20;65.60;;;;;;5019758;28;21004;-48
2022/06/19 08:43:45;;;;;;;10.33;8.13;;;31.70;66.60;;;;;;5020022;28;21096;-47
2022/06/19 08:46:25;;;;;;;9.40;8.50;;;31.70;66.30;;;;;;5003070;28;20465;-49
2022/06/19 08:49:03;;;;;;;11.03;8.00;;;31.70;65.70;;;;;;5008847;28;20496;-48
2022/06/19 08:51:38;;;;;;;12.30;9.50;;;31.60;65.60;;;;;;5018662;28;20951;-49
2022/06/19 08:54:16;;;;;;;17.13;8.30;;;31.70;66.70;;;;;;5022268;28;20483;-49
2022/06/19 08:56:49;;;;;;;10.03;8.87;;;31.80;68.40;;;;;;5018569;28;20481;-48
2022/06/19 08:59:26;;;;;;;14.03;7.63;;;32.00;66.60;;;;;;5015936;28;20887;-49
2022/06/19 09:02:05;;;;;;;14.23;8.43;;;32.20;64.60;;;;;;5015549;28;20499;-48
2022/06/19 09:07:42;;;;;;;8.70;7.90;;;32.20;64.20;;;;;;5018442;28;20504;-48
2022/06/19 09:10:25;;;;;;;12.70;7.53;;;32.20;65.30;;;;;;5018836;28;20476;-49
2022/06/19 09:13:04;;;;;;;8.57;7.77;;;32.50;64.60;;;;;;5007090;28;20833;-47
2022/06/19 09:15:38;;;;;;;7.53;6.83;;;32.50;64.90;;;;;;5005850;28;20483;-49
2022/06/19 09:18:10;;;;;;;13.67;8.50;;;32.80;65.10;;;;;;5031701;28;20944;-49
2022/06/19 09:20:43;;;;;;;9.13;8.43;;;33.00;65.50;;;;;;5017605;28;20489;-49
2022/06/19 09:23:20;;;;;;;11.70;8.90;;;;;;;;;;5025650;28;20480;-49
2022/06/19 09:25:52;;;;;;;10.97;8.67;;;32.90;65.40;;;;;;5014966;28;20491;-48
2022/06/19 09:28:27;;;;;;;12.13;7.63;;;33.00;63.80;;;;;;5019037;28;20469;-48
2022/06/19 09:31:00;;;;;;;14.50;8.73;;;33.00;64.00;;;;;;5009478;28;20473;-49
2022/06/19 09:33:37;;;;;;;10.23;8.50;;;32.90;62.40;;;;;;5019616;28;20476;-48
2022/06/19 09:36:09;;;;;;;10.87;8.30;;;33.00;62.80;;;;;;5017318;28;20735;-49
2022/06/19 09:38:40;;;;;;;11.27;8.30;;;33.10;63.50;;;;;;5016256;28;20451;-47
2022/06/19 09:41:11;;;;;;;12.40;7.93;;;;;;;;;;5017240;28;21101;-47
2022/06/19 09:43:43;;;;;;;12.90;9.20;;;33.30;62.40;;;;;;5019062;28;20473;-48
2022/06/19 09:46:16;;;;;;;11.43;7.60;;;33.20;62.80;;;;;;5019394;28;20483;-48
2022/06/19 09:48:53;;;;;;;13.80;8.40;;;33.30;62.40;;;;;;5017441;28;20492;-49
2022/06/19 09:51:25;;;;;;;11.20;7.97;;;33.60;61.90;;;;;;5004766;28;20496;-48
2022/06/19 09:53:58;;;;;;;11.80;7.80;;;33.70;62.50;;;;;;5007462;28;20477;-48
2022/06/19 09:56:34;;;;;;;13.63;8.67;;;33.60;61.00;;;;;;5003547;28;20990;-48
2022/06/19 09:59:09;;;;;;;9.47;7.57;;;33.50;62.20;;;;;;5017488;28;21132;-49
2022/06/19 10:01:37;;;;;;;10.13;8.37;;;33.40;61.60;;;;;;5000131;28;20500;-48
2022/06/19 10:04:11;;;;;;;10.03;7.67;;;33.50;63.10;;;;;;5030906;28;20685;-49
2022/06/19 10:06:42;;;;;;;12.63;8.50;;;33.50;61.20;;;;;;5017536;28;20934;-49
2022/06/19 10:09:21;;;;;;;10.10;7.90;;;33.70;61.70;;;;;;5017647;28;20485;-48
2022/06/19 10:11:51;;;;;;;12.63;9.20;;;34.10;61.00;;;;;;5018256;28;20468;-48
2022/06/19 10:14:27;;;;;;;9.30;7.93;;;34.10;61.90;;;;;;5018319;28;20562;-49
2022/06/19 10:17:00;;;;;;;13.80;8.00;;;34.00;63.60;;;;;;5005627;28;20480;-49
2022/06/19 10:19:38;;;;;;;9.90;8.03;;;33.80;60.10;;;;;;5008134;28;20966;-50
2022/06/19 10:22:23;;;;;;;11.57;7.97;;;33.80;63.40;;;;;;5017863;28;20483;-48
2022/06/19 10:25:03;;;;;;;11.90;6.90;;;33.80;64.00;;;;;;5014667;28;20476;-49
2022/06/19 10:27:36;;;;;;;9.20;7.10;;;34.00;59.20;;;;;;5017102;28;20500;-50
2022/06/19 10:30:07;;;;;;;11.13;8.73;;;34.00;60.40;;;;;;5015793;28;20845;-49
2022/06/19 10:32:50;;;;;;;9.43;7.40;;;34.00;59.20;;;;;;5018444;28;21037;-49
2022/06/19 10:35:32;;;;;;;8.70;6.80;;;34.00;59.20;;;;;;5017076;28;20484;-48
2022/06/19 10:38:13;;;;;;;11.30;8.30;;;34.20;60.40;;;;;;5005722;28;20443;-50
2022/06/19 10:40:46;;;;;;;10.30;8.07;;;34.20;61.20;;;;;;5013863;28;20471;-49
2022/06/19 10:43:25;;;;;;;9.47;8.40;;;34.70;58.90;;;;;;5015210;28;20570;-49
2022/06/19 10:45:56;;;;;;;8.00;7.30;;;34.60;59.10;;;;;;5008199;28;20615;-49
2022/06/19 10:48:32;;;;;;;7.60;6.90;;;34.80;60.40;;;;;;5022924;28;20471;-49
2022/06/19 10:51:22;;;;;;;14.03;7.67;;;34.90;59.20;;;;;;5029194;28;20461;-51
2022/06/19 10:54:13;;;;;;;10.80;7.40;;;35.20;60.20;;;;;;5018563;28;20856;-49
2022/06/19 10:56:46;;;;;;;13.10;8.50;;;35.30;58.80;;;;;;5008378;28;20463;-48
2022/06/19 10:59:14;;;;;;;11.87;8.23;;;35.30;58.60;;;;;;5024125;28;20462;-49
2022/06/19 11:04:36;;;;;;;11.43;8.10;;;35.10;57.90;;;;;;5011383;28;20847;-50
2022/06/19 11:07:08;;;;;;;11.20;7.40;;;35.20;59.70;;;;;;5020520;28;20451;-48
2022/06/19 11:09:40;;;;;;;10.93;8.13;;;35.20;59.40;;;;;;5019607;28;21266;-49
2022/06/19 11:12:16;;;;;;;15.20;8.50;;;35.20;57.90;;;;;;5023121;28;20483;-49
2022/06/19 11:14:47;;;;;;;12.67;8.07;;;35.30;59.40;;;;;;5020889;28;20962;-48
2022/06/19 11:17:16;;;;;;;13.97;8.47;;;35.10;57.90;;;;;;5015644;28;20491;-48
2022/06/19 11:19:45;;;;;;;14.43;7.60;;;35.20;58.50;;;;;;5021083;28;20456;-49
2022/06/19 11:22:36;;;;;;;13.80;7.53;;;35.30;58.90;;;;;;5021721;28;20459;-49
2022/06/19 11:25:30;;;;;;;9.47;7.47;;;35.30;58.90;;;;;;5022567;28;20551;-50
2022/06/19 11:28:01;;;;;;;9.60;7.90;;;35.40;58.80;;;;;;5015043;28;20443;-48
2022/06/19 11:30:31;;;;;;;13.77;7.50;;;35.40;59.00;;;;;;5028701;28;20915;-48
2022/06/19 11:32:59;;;;;;;14.73;8.13;;;35.40;59.80;;;;;;5021452;28;20466;-48
2022/06/19 11:35:36;;;;;;;12.90;8.23;;;35.40;59.30;;;;;;5018547;28;20972;-49
2022/06/19 11:38:04;;;;;;;10.63;8.20;;;35.30;57.80;;;;;;5011269;28;20493;-50
2022/06/19 11:40:34;;;;;;;11.77;9.63;;;35.30;59.10;;;;;;5020830;28;20488;-49
2022/06/19 11:43:03;;;;;;;9.27;8.47;;;35.60;57.40;;;;;;5020182;28;20832;-49
2022/06/19 11:45:33;;;;;;;14.73;9.37;;;35.50;60.70;;;;;;5016754;28;20449;-50
2022/06/19 11:48:05;;;;;;;12.20;7.60;;;35.50;61.00;;;;;;5020836;28;20459;-49
2022/06/19 11:50:45;;;;;;;14.73;8.40;;;35.20;59.60;;;;;;5014031;28;20459;-49
2022/06/19 11:53:18;;;;;;;14.50;9.17;;;35.00;59.80;;;;;;5013631;28;20482;-49
2022/06/19 11:55:47;;;;;;;9.07;8.17;;;34.90;58.10;;;;;;5020233;28;20467;-49
2022/06/19 11:58:21;;;;;;;8.07;7.37;;;34.80;59.00;;;;;;5018759;28;20484;-49
2022/06/19 12:00:57;;;;;;;11.93;7.83;;;35.00;59.60;;;;;;5018175;28;20635;-50
2022/06/19 12:03:28;;;;;;;8.33;7.60;;;35.00;59.80;;;;;;5009828;28;20458;-51
2022/06/19 12:05:58;;;;;;;10.03;7.60;;;35.00;59.40;;;;;;5024715;28;20786;-49
2022/06/19 12:08:29;;;;;;;14.73;8.20;;;34.80;59.60;;;;;;5013742;28;21015;-50
2022/06/19 12:10:59;;;;;;;13.90;7.33;;;34.90;58.20;;;;;;5024967;28;20499;-49
2022/06/19 12:13:30;;;;;;;16.33;9.53;;;35.00;58.40;;;;;;5020609;28;20529;-51
2022/06/19 12:16:02;;;;;;;11.63;7.87;;;35.00;60.40;;;;;;5019987;28;20463;-48
2022/06/19 12:18:30;;;;;;;12.50;8.40;;;35.00;58.10;;;;;;5019405;28;20492;-54
2022/06/19 12:21:01;;;;;;;17.37;8.97;;;35.10;59.20;;;;;;5021603;28;20484;-49
2022/06/19 12:23:36;;;;;;;8.43;7.73;;;35.40;58.10;;;;;;5021053;28;20458;-50
2022/06/19 12:26:07;;;;;;;9.47;7.40;;;35.20;57.30;;;;;;5008599;28;21459;-48
2022/06/19 12:28:41;;;;;;;16.03;6.87;;;35.30;59.80;;;;;;5002099;28;20484;-50
2022/06/19 12:31:12;;;;;;;18.60;7.43;;;35.10;58.60;;;;;;5001894;28;20486;-50
2022/06/19 12:33:43;;;;;;;16.80;8.23;;;35.00;57.20;;;;;;5028878;28;20547;-52
2022/06/19 12:36:15;;;;;;;13.63;7.30;;;34.90;58.30;;;;;;5025784;28;20645;-47
2022/06/19 12:38:43;;;;;;;12.93;8.30;;;35.00;60.00;;;;;;5018350;28;20455;-50
2022/06/19 12:41:26;;;;;;;8.17;6.40;;;35.10;58.90;;;;;;5020879;28;20563;-49
2022/06/19 12:44:08;;;;;;;15.00;6.67;;;35.20;58.30;;;;;;5017240;28;20835;-48
2022/06/19 12:46:42;;;;;;;14.13;7.17;;;35.20;57.60;;;;;;5006922;28;20924;-48
2022/06/19 12:49:21;;;;;;;12.53;7.37;;;35.10;56.10;;;;;;5019520;28;20444;-49
2022/06/19 12:51:53;;;;;;;15.67;7.70;;;35.20;55.80;;;;;;5015741;28;20846;-50
2022/06/19 12:54:47;;;;;;;8.60;6.80;;;34.90;57.70;;;;;;5019390;28;20477;-51
2022/06/19 12:57:29;;;;;;;8.10;7.10;;;34.90;57.20;;;;;;5012595;28;20782;-49
2022/06/19 13:00:09;;;;;;;9.30;6.70;;;34.90;58.00;;;;;;5009816;28;20525;-50
2022/06/19 13:03:03;;;;;;;10.33;8.10;;;35.00;56.80;;;;;;5015465;28;20973;-48
2022/06/19 13:05:44;;;;;;;12.10;8.27;;;35.40;58.30;;;;;;5017173;28;20488;-49
2022/06/19 13:08:19;;;;;;;16.53;8.73;;;35.30;56.80;;;;;;5004982;28;20964;-48